Time;durP1;ratioP1;P1;durP2;ratioP2;P2;SDS_P1;SDS_P2;PMS_P1;PMS_P2;Temp;Humidity;BMP_temperature;BMP_pressure;BME280_temperature;BME280_humidity;BME280_pressure;Samples;Min_cycle;Max_cycle;Signal;HPM_P1;HPM_P2
2022/05/14 00:01:52;;;;;;;;;4.50;4.50;;;;;22.63;33.95;101762.16;5077463;27;45619;-54
2022/05/14 00:04:18;;;;;;;;;2.00;2.00;;;;;22.63;34.20;101768.28;5077152;28;46100;-55
2022/05/14 00:06:43;;;;;;;;;4.25;4.00;;;;;22.63;34.01;101767.44;5077472;28;45322;-54
2022/05/14 00:09:08;;;;;;;;;4.25;4.25;;;;;22.63;33.94;101756.88;5076057;28;45331;-56
2022/05/14 00:14:19;;;;;;;;;5.00;4.00;;;;;22.61;33.94;101756.06;5076789;28;45801;-54
2022/05/14 00:16:44;;;;;;;;;4.50;4.50;;;;;22.60;33.97;101757.84;5077219;27;45363;-54
2022/05/14 00:19:10;;;;;;;;;4.50;3.75;;;;;22.59;33.73;101761.44;5077202;28;45382;-56
2022/05/14 00:21:36;;;;;;;;;5.00;3.00;;;;;22.59;34.11;101764.09;5077229;28;45564;-55
2022/05/14 00:24:03;;;;;;;;;3.50;3.50;;;;;22.57;34.10;101762.44;5076469;27;46314;-54
2022/05/14 00:26:28;;;;;;;;;5.25;4.00;;;;;22.57;34.08;101759.78;5076892;28;45343;-53
2022/05/14 00:28:54;;;;;;;;;3.00;3.00;;;;;22.58;34.03;101761.50;5077014;27;45220;-55
2022/05/14 00:31:20;;;;;;;;;4.00;4.00;;;;;22.58;34.54;101756.22;5075946;28;45359;-53
2022/05/14 00:33:46;;;;;;;;;3.00;3.00;;;;;22.58;34.12;101764.16;5076991;27;46362;-55
2022/05/14 00:36:12;;;;;;;;;3.75;3.75;;;;;22.55;34.11;101763.38;5076731;27;45255;-55
2022/05/14 00:38:38;;;;;;;;;3.25;3.25;;;;;22.54;34.06;101756.38;5076964;27;45389;-55
2022/05/14 00:41:06;;;;;;;;;3.25;3.25;;;;;22.56;34.15;101751.03;5077062;27;45396;-54
2022/05/14 00:43:34;;;;;;;;;4.00;3.00;;;;;22.55;34.18;101755.44;5076490;28;45378;-55
2022/05/14 00:46:16;;;;;;;;;3.25;3.25;;;;;22.52;34.10;101745.03;5075280;28;45272;-54
2022/05/14 00:48:43;;;;;;;;;4.00;3.25;;;;;22.54;34.07;101747.59;5076864;27;45543;-53
2022/05/14 00:51:15;;;;;;;;;3.00;3.00;;;;;22.53;34.05;101744.13;5076917;27;45209;-55
2022/05/14 00:53:45;;;;;;;;;5.00;3.75;;;;;22.52;34.20;101752.97;5076540;28;46659;-54
2022/05/14 00:56:14;;;;;;;;;5.75;4.50;;;;;22.52;34.51;101749.47;5077519;27;45734;-56
2022/05/14 00:58:44;;;;;;;;;7.00;3.75;;;;;22.52;34.07;101745.03;5079042;28;45498;-54
2022/05/14 01:01:09;;;;;;;;;3.50;3.50;;;;;22.51;34.18;101747.75;5080506;27;45231;-54
2022/05/14 01:03:35;;;;;;;;;3.25;3.25;;;;;22.50;34.12;101738.09;5080015;27;45264;-54
2022/05/14 01:06:04;;;;;;;;;2.75;2.75;;;;;22.49;33.90;101734.63;5079928;27;45323;-54
2022/05/14 01:08:30;;;;;;;;;5.00;4.00;;;;;22.50;34.13;101740.75;5078768;28;45343;-56
2022/05/14 01:10:57;;;;;;;;;4.00;3.50;;;;;22.49;34.14;101739.91;5080185;28;45496;-56
2022/05/14 01:13:23;;;;;;;;;4.00;4.00;;;;;22.48;34.45;101748.75;5079588;27;46326;-56
2022/05/14 01:15:51;;;;;;;;;3.50;3.50;;;;;22.49;34.24;101739.06;5080136;27;45756;-56
2022/05/14 01:18:19;;;;;;;;;4.75;3.25;;;;;22.46;34.33;101736.56;5080257;27;45446;-58
2022/05/14 01:21:00;;;;;;;;;5.75;4.50;;;;;22.47;34.20;101731.19;5080326;28;45583;-58
2022/05/14 01:26:34;;;;;;;;;3.00;3.00;;;;;22.46;34.36;101729.47;5079698;28;45929;-56
2022/05/14 01:29:13;;;;;;;;;7.75;3.25;;;;;22.46;34.28;101728.63;5078522;28;45334;-55
2022/05/14 01:31:39;;;;;;;;;3.00;3.00;;;;;22.45;34.42;101733.06;5079782;27;45330;-58
2022/05/14 01:34:08;;;;;;;;;4.00;4.00;;;;;22.47;34.38;101730.34;5079470;27;45395;-56
2022/05/14 01:36:36;;;;;;;;;3.25;3.25;;;;;22.44;34.37;101718.13;5079347;27;45345;-57
2022/05/14 01:39:02;;;;;;;;;3.75;3.50;;;;;22.45;34.50;101721.66;5079670;27;45423;-54
2022/05/14 01:41:27;;;;;;;;;3.75;3.00;;;;;22.43;34.36;101710.28;5079792;27;45653;-58
2022/05/14 01:43:53;;;;;;;;;3.25;3.25;;;;;22.45;34.22;101727.75;5079376;27;45257;-54
2022/05/14 01:46:19;;;;;;;;;3.00;3.00;;;;;22.43;34.20;101716.44;5079633;28;45188;-56
2022/05/14 01:48:45;;;;;;;;;5.75;4.75;;;;;22.45;34.43;101729.56;5079538;27;45185;-57
2022/05/14 01:51:10;;;;;;;;;4.25;4.25;;;;;22.46;34.52;101723.34;5079571;27;45185;-56
2022/05/14 01:53:36;;;;;;;;;4.00;3.00;;;;;22.43;34.36;101719.09;5079152;28;45188;-58
2022/05/14 01:56:01;;;;;;;;;7.00;4.00;;;;;22.44;34.36;101719.94;5079151;28;45268;-56
2022/05/14 01:58:39;;;;;;;;;3.00;3.00;;;;;22.45;34.39;101725.13;5079405;27;45355;-54
2022/05/14 02:01:18;;;;;;;;;3.25;3.25;;;;;22.44;34.31;101714.66;5079320;28;45409;-57
2022/05/14 02:03:46;;;;;;;;;4.25;3.00;;;;;22.43;34.38;101712.94;5079012;27;46136;-56
2022/05/14 02:06:13;;;;;;;;;3.25;2.75;;;;;22.42;34.34;101713.88;5079083;27;45801;-54
2022/05/14 02:08:39;;;;;;;;;3.00;3.00;;;;;22.42;34.56;101713.88;5077983;27;45455;-54
2022/05/14 02:11:05;;;;;;;;;5.00;4.50;;;;;22.36;34.42;101707.06;5079321;28;45354;-55
2022/05/14 02:13:31;;;;;;;;;4.00;4.00;;;;;22.41;34.51;101710.38;5078689;27;46114;-55
2022/05/14 02:15:57;;;;;;;;;5.00;3.00;;;;;22.41;34.49;101709.50;5078752;27;45447;-56
2022/05/14 02:18:23;;;;;;;;;4.75;3.25;;;;;22.41;34.49;101713.03;5079259;28;45365;-54
2022/05/14 02:20:49;;;;;;;;;3.00;3.00;;;;;22.39;34.33;101706.91;5079376;28;45180;-55
2022/05/14 02:23:14;;;;;;;;;3.00;3.00;;;;;22.40;34.37;101706.00;5078776;28;46135;-54
2022/05/14 02:25:41;;;;;;;;;3.00;3.00;;;;;22.40;34.37;101708.63;5078795;27;45311;-54
2022/05/14 02:28:06;;;;;;;;;4.50;2.75;;;;;22.38;34.46;101706.03;5078869;27;45169;-56
2022/05/14 02:30:32;;;;;;;;;5.50;4.25;;;;;22.39;34.48;101706.91;5078871;28;45414;-54
2022/05/14 02:32:57;;;;;;;;;6.00;4.25;;;;;22.39;34.18;101706.91;5077253;28;47193;-55
2022/05/14 02:35:23;;;;;;;;;4.00;3.00;;;;;22.39;34.41;101713.03;5078850;28;45371;-55
2022/05/14 02:37:48;;;;;;;;;4.00;2.00;;;;;22.37;34.33;101712.28;5078773;27;45346;-54
2022/05/14 02:40:14;;;;;;;;;3.00;3.00;;;;;22.36;34.37;101701.78;5078800;28;45632;-56
2022/05/14 02:42:39;;;;;;;;;4.25;2.75;;;;;22.38;34.37;101705.22;5078393;27;46154;-56
2022/05/14 02:45:05;;;;;;;;;4.00;2.75;;;;;22.37;34.37;101711.41;5078493;27;45497;-56
2022/05/14 02:47:32;;;;;;;;;2.50;2.50;;;;;22.36;34.31;101715.84;5078458;27;45275;-57
2022/05/14 02:49:58;;;;;;;;;3.75;3.00;;;;;22.37;34.49;101719.34;5077446;28;45586;-57
2022/05/14 02:52:23;;;;;;;;;5.00;3.25;;;;;22.36;34.52;101709.72;5078663;28;46257;-54
2022/05/14 02:54:50;;;;;;;;;4.50;2.50;;;;;22.35;34.49;101711.50;5077069;28;45515;-54
2022/05/14 02:57:16;;;;;;;;;2.25;2.00;;;;;22.36;34.31;101723.78;5078558;27;45324;-58
2022/05/14 02:59:41;;;;;;;;;4.00;2.25;;;;;22.36;34.27;101720.28;5078563;28;45639;-58
2022/05/14 03:02:06;;;;;;;;;3.25;2.25;;;;;22.34;34.34;101716.84;5078242;28;45326;-57
2022/05/14 03:04:37;;;;;;;;;2.25;2.25;;;;;22.34;34.29;101719.47;5078130;28;45357;-58
2022/05/14 03:07:04;;;;;;;;;3.00;3.00;;;;;22.33;34.46;101715.13;5078211;27;45311;-57
2022/05/14 03:09:30;;;;;;;;;5.00;4.00;;;;;22.33;34.28;101713.38;5078316;27;45297;-58
2022/05/14 03:11:55;;;;;;;;;2.00;2.00;;;;;22.33;34.25;101718.66;5078225;28;45312;-58
2022/05/14 03:14:22;;;;;;;;;2.00;2.00;;;;;22.31;34.57;101714.38;5078225;27;45397;-58
2022/05/14 03:16:47;;;;;;;;;5.00;3.00;;;;;22.32;34.50;101716.09;5078085;27;45387;-58
2022/05/14 03:19:13;;;;;;;;;2.00;2.00;;;;;22.32;34.33;101716.94;5077878;27;45452;-57
2022/05/14 03:21:39;;;;;;;;;3.25;2.50;;;;;22.32;34.11;101709.00;5077816;27;45544;-57
2022/05/14 03:24:05;;;;;;;;;3.50;3.50;;;;;22.32;34.18;101705.53;5077874;27;45912;-56
2022/05/14 03:26:30;;;;;;;;;2.75;2.75;;;;;22.31;34.25;101715.22;5077941;27;45609;-56
2022/05/14 03:28:56;;;;;;;;;2.50;2.50;;;;;22.32;34.07;101710.81;5077198;28;45848;-54
2022/05/14 03:31:21;;;;;;;;;2.75;2.75;;;;;22.30;34.25;101712.66;5078052;28;46708;-56
2022/05/14 03:33:47;;;;;;;;;2.50;2.00;;;;;22.28;34.24;101714.53;5077972;27;45301;-58
2022/05/14 03:36:12;;;;;;;;;5.00;3.00;;;;;22.29;34.16;101711.78;5077415;27;45386;-56
2022/05/14 03:38:38;;;;;;;;;4.00;3.00;;;;;22.30;34.25;101712.66;5078035;28;45227;-56
2022/05/14 03:41:04;;;;;;;;;4.25;3.00;;;;;22.30;34.41;101712.66;5077718;28;46157;-58
2022/05/14 03:43:30;;;;;;;;;1.75;1.75;;;;;22.30;34.39;101710.03;5077776;27;45871;-57
2022/05/14 03:45:56;;;;;;;;;2.00;2.00;;;;;22.29;34.14;101714.44;5078166;27;45223;-57
2022/05/14 03:48:22;;;;;;;;;1.00;1.00;;;;;22.29;34.27;101710.94;5078607;27;45614;-57
2022/05/14 03:50:47;;;;;;;;;2.75;2.00;;;;;22.30;34.21;101712.66;5077528;27;46225;-55
2022/05/14 03:53:13;;;;;;;;;2.00;2.00;;;;;22.29;34.35;101713.59;5077570;28;45361;-58
2022/05/14 03:55:38;;;;;;;;;4.00;2.00;;;;;22.27;34.27;101713.66;5077266;28;45349;-58
2022/05/14 03:58:04;;;;;;;;;2.25;2.25;;;;;22.28;34.09;101717.16;5077781;28;45330;-58
2022/05/14 04:00:29;;;;;;;;;2.25;2.25;;;;;22.29;34.26;101718.88;5077275;28;45430;-55
2022/05/14 04:02:54;;;;;;;;;2.00;2.00;;;;;22.27;34.41;101707.53;5077645;27;45437;-59
2022/05/14 04:05:20;;;;;;;;;2.00;2.00;;;;;22.26;34.47;101704.03;5075920;28;46958;-57
2022/05/14 04:07:47;;;;;;;;;1.25;1.25;;;;;22.28;34.34;101709.25;5077482;27;45562;-58
2022/05/14 04:10:13;;;;;;;;;2.75;2.00;;;;;22.26;34.18;101705.81;5077110;27;47081;-56
2022/05/14 04:12:39;;;;;;;;;3.00;2.00;;;;;22.23;34.19;101702.38;5077207;28;45735;-57
2022/05/14 04:15:06;;;;;;;;;3.25;2.25;;;;;22.27;34.41;101707.53;5077111;27;45333;-55
2022/05/14 04:17:31;;;;;;;;;2.75;1.00;;;;;22.25;34.15;101710.25;5077300;27;45465;-57
2022/05/14 04:19:56;;;;;;;;;2.25;1.75;;;;;22.24;34.17;101709.38;5075965;28;48204;-56
2022/05/14 04:22:22;;;;;;;;;2.00;2.00;;;;;22.21;34.25;101714.81;5076857;27;45500;-58
2022/05/14 04:24:48;;;;;;;;;1.50;1.50;;;;;22.23;34.50;101712.09;5076996;27;45271;-58
2022/05/14 04:27:13;;;;;;;;;1.50;1.50;;;;;22.23;34.26;101720.88;5075804;28;45458;-58
2022/05/14 04:29:39;;;;;;;;;2.75;2.00;;;;;22.23;34.24;101707.66;5076886;27;45694;-57
2022/05/14 04:32:04;;;;;;;;;2.00;2.00;;;;;22.21;34.24;101720.06;5076060;28;45298;-57
2022/05/14 04:34:30;;;;;;;;;2.00;2.00;;;;;22.22;34.16;101719.16;5075675;28;45349;-55
2022/05/14 04:36:55;;;;;;;;;3.50;3.00;;;;;22.19;34.34;101711.41;5077189;27;45343;-58
2022/05/14 04:39:31;;;;;;;;;2.00;2.00;;;;;22.20;34.41;101717.53;5076597;27;46317;-57
2022/05/14 04:42:04;;;;;;;;;1.25;1.25;;;;;22.20;34.19;101725.44;5076831;27;45350;-58
2022/05/14 04:44:31;;;;;;;;;2.50;2.50;;;;;22.23;34.10;101722.66;5075770;28;45449;-57
2022/05/14 04:46:56;;;;;;;;;1.25;1.25;;;;;22.23;34.17;101725.31;5077057;27;45275;-55
2022/05/14 04:49:22;;;;;;;;;1.75;1.75;;;;;22.21;34.18;101725.34;5076397;28;45339;-57
2022/05/14 04:51:48;;;;;;;;;2.75;2.75;;;;;22.20;34.39;101718.41;5076505;27;45723;-55
2022/05/14 04:54:14;;;;;;;;;1.75;1.50;;;;;22.20;34.22;101720.16;5075279;28;45256;-57
2022/05/14 04:56:39;;;;;;;;;1.75;1.75;;;;;22.19;34.24;101721.09;5076701;27;45488;-56
2022/05/14 04:59:05;;;;;;;;;2.75;2.00;;;;;22.18;34.37;101725.53;5076393;27;46033;-54
2022/05/14 05:01:30;;;;;;;;;2.75;2.00;;;;;22.17;34.20;101725.59;5076748;28;45666;-57
2022/05/14 05:03:58;;;;;;;;;2.00;2.00;;;;;22.14;34.03;101723.97;5076831;27;45440;-56
2022/05/14 05:06:23;;;;;;;;;3.00;2.25;;;;;22.12;34.38;101725.81;5075353;28;45580;-57
2022/05/14 05:08:51;;;;;;;;;3.00;3.00;;;;;22.10;34.28;101727.69;5076116;27;45337;-56
2022/05/14 05:11:18;;;;;;;;;4.00;4.00;;;;;22.09;34.43;101725.97;5076325;27;45436;-55
2022/05/14 05:13:43;;;;;;;;;1.00;1.00;;;;;22.05;34.73;101716.47;5076278;28;45248;-55
2022/05/14 05:16:09;;;;;;;;;2.75;2.75;;;;;22.05;34.58;101725.25;5076524;27;45380;-53
2022/05/14 05:18:34;;;;;;;;;3.00;2.75;;;;;22.04;34.41;101725.34;5075992;28;47061;-54
2022/05/14 05:21:00;;;;;;;;;2.75;2.00;;;;;22.00;34.25;101723.75;5076204;28;51064;-54
2022/05/14 05:23:26;;;;;;;;;2.25;2.25;;;;;21.99;34.29;101719.44;5076333;27;45255;-55
2022/05/14 05:25:52;;;;;;;;;1.00;1.00;;;;;21.90;34.18;101724.19;5076528;27;45464;-54
2022/05/14 05:28:18;;;;;;;;;4.75;2.00;;;;;21.81;34.31;101726.44;5076199;27;45454;-54
2022/05/14 05:30:45;;;;;;;;;2.25;2.00;;;;;21.71;34.01;101728.63;5076147;27;45333;-54
2022/05/14 05:33:12;;;;;;;;;3.00;3.00;;;;;21.60;34.08;101724.69;5076266;27;45492;-54
2022/05/14 05:35:37;;;;;;;;;4.00;1.00;;;;;21.52;34.58;101724.19;5076378;27;45386;-55
2022/05/14 05:38:02;;;;;;;;;2.75;2.75;;;;;21.47;34.31;101720.88;5075891;28;46202;-54
2022/05/14 05:40:28;;;;;;;;;3.50;2.25;;;;;21.40;34.60;101725.56;5076220;28;45353;-57
2022/05/14 05:42:53;;;;;;;;;2.00;2.00;;;;;21.36;34.21;101728.41;5077763;28;51932;-54
2022/05/14 05:45:19;;;;;;;;;1.00;1.00;;;;;21.27;34.52;101729.69;5079704;28;45503;-57
2022/05/14 05:47:44;;;;;;;;;3.75;3.00;;;;;21.21;34.93;101732.59;5079292;27;47024;-54
2022/05/14 05:50:11;;;;;;;;;2.00;1.75;;;;;21.15;34.64;101723.16;5079332;27;45262;-57
2022/05/14 05:52:36;;;;;;;;;2.00;2.00;;;;;21.14;35.12;101729.38;5079452;27;45243;-56
2022/05/14 05:57:46;;;;;;;;;1.75;1.75;;;;;21.07;35.13;101727.94;5078999;28;45333;-57
2022/05/14 06:00:19;;;;;;;;;2.75;2.75;;;;;21.01;35.04;101727.25;5079238;27;45254;-55
2022/05/14 06:02:46;;;;;;;;;2.00;2.00;;;;;20.98;34.89;101737.97;5079204;27;45227;-56
2022/05/14 06:05:13;;;;;;;;;2.50;1.50;;;;;20.97;35.23;101741.50;5079304;27;45342;-57
2022/05/14 06:07:39;;;;;;;;;3.00;2.00;;;;;20.95;35.29;101735.44;5079002;27;46577;-55
2022/05/14 06:10:06;;;;;;;;;2.00;1.00;;;;;20.93;35.18;101744.34;5078992;27;45793;-55
2022/05/14 06:12:34;;;;;;;;;4.25;2.75;;;;;20.92;35.72;101746.09;5079514;27;45414;-55
2022/05/14 06:14:59;;;;;;;;;3.25;3.00;;;;;20.88;35.54;101743.66;5079061;28;45639;-54
2022/05/14 06:17:25;;;;;;;;;2.00;2.00;;;;;20.87;35.47;101745.47;5078683;28;45169;-57
2022/05/14 06:19:50;;;;;;;;;2.25;2.00;;;;;20.85;35.43;101745.50;5078910;28;45273;-56
2022/05/14 06:22:16;;;;;;;;;2.00;2.00;;;;;20.88;35.53;101756.84;5078990;27;45284;-57
2022/05/14 06:24:41;;;;;;;;;4.00;4.00;;;;;20.88;35.27;101751.56;5078824;28;45181;-56
2022/05/14 06:27:06;;;;;;;;;3.50;3.50;;;;;20.85;36.11;101757.84;5078727;28;45248;-56
2022/05/14 06:29:33;;;;;;;;;3.25;3.25;;;;;20.85;35.54;101755.19;5078939;27;45272;-58
2022/05/14 06:31:59;;;;;;;;;3.00;3.00;;;;;20.85;35.57;101756.03;5078783;28;45500;-56
2022/05/14 06:34:25;;;;;;;;;3.00;3.00;;;;;20.86;35.56;101756.91;5079015;27;45428;-54
2022/05/14 06:36:51;;;;;;;;;3.25;3.25;;;;;20.83;35.69;101765.81;5078327;27;46539;-55
2022/05/14 06:39:17;;;;;;;;;3.00;3.00;;;;;20.84;35.82;101764.88;5078589;28;45386;-55
2022/05/14 06:41:42;;;;;;;;;3.00;2.00;;;;;20.85;35.52;101765.75;5078533;27;45331;-57
2022/05/14 06:44:08;;;;;;;;;4.00;3.00;;;;;20.83;35.70;101764.94;5077420;28;45391;-56
2022/05/14 06:46:34;;;;;;;;;3.75;3.00;;;;;20.86;35.68;101764.81;5078408;28;53272;-56
2022/05/14 06:49:00;;;;;;;;;5.00;3.25;;;;;20.84;35.95;101764.03;5078828;28;45351;-56
2022/05/14 06:51:28;;;;;;;;;2.25;2.25;;;;;20.85;35.62;101752.56;5078484;28;45343;-57
2022/05/14 06:53:58;;;;;;;;;3.00;3.00;;;;;20.83;35.39;101752.66;5076517;28;45406;-56
2022/05/14 06:56:26;;;;;;;;;2.25;2.25;;;;;20.82;35.86;101755.31;5078060;27;45266;-56
2022/05/14 06:58:51;;;;;;;;;3.00;3.00;;;;;20.83;35.75;101757.91;5078275;27;45219;-56
2022/05/14 07:01:19;;;;;;;;;3.00;3.00;;;;;20.82;35.82;101757.97;5078355;27;45394;-55
2022/05/14 07:06:40;;;;;;;;;4.50;4.50;;;;;20.82;35.56;101766.75;5077078;28;46183;-56
2022/05/14 07:09:18;;;;;;;;;4.25;3.00;;;;;20.82;35.79;101768.50;5077000;28;45797;-56
2022/05/14 07:11:49;;;;;;;;;3.00;3.00;;;;;20.81;35.50;101764.16;5078114;28;45299;-59
2022/05/14 07:14:19;;;;;;;;;4.75;3.75;;;;;20.84;35.49;101764.03;5078225;27;45342;-59
2022/05/14 07:16:46;;;;;;;;;2.00;2.00;;;;;20.85;35.94;101760.47;5077819;27;46403;-58
2022/05/14 07:19:12;;;;;;;;;5.50;3.50;;;;;20.88;35.30;101756.84;5078185;27;45756;-58
2022/05/14 07:21:40;;;;;;;;;3.75;3.00;;;;;20.89;35.89;101764.69;5078012;27;45365;-58
2022/05/14 07:24:08;;;;;;;;;4.00;3.75;;;;;20.89;35.87;101756.78;5078703;27;45434;-59
2022/05/14 07:26:35;;;;;;;;;3.00;3.00;;;;;20.91;35.29;101757.56;5078146;27;45426;-59
2022/05/14 07:29:06;;;;;;;;;3.25;3.00;;;;;20.92;36.06;101754.00;5077940;27;45777;-57
2022/05/14 07:31:31;;;;;;;;;3.25;2.75;;;;;20.95;35.46;101751.25;5078026;27;45392;-54
2022/05/14 07:33:58;;;;;;;;;1.25;1.25;;;;;20.94;35.23;101752.16;5078090;27;45986;-54
2022/05/14 07:36:25;;;;;;;;;2.75;2.75;;;;;20.96;35.38;101752.97;5077565;28;45240;-53
2022/05/14 07:38:52;;;;;;;;;3.00;3.00;;;;;20.96;35.34;101755.59;5077728;27;45349;-54
2022/05/14 07:41:18;;;;;;;;;1.25;1.25;;;;;20.95;35.60;101751.25;5077771;28;45300;-53
2022/05/14 07:43:47;;;;;;;;;4.50;3.00;;;;;20.98;35.25;101748.50;5077829;27;45612;-55
2022/05/14 07:46:17;;;;;;;;;4.00;2.00;;;;;21.00;35.24;101744.00;5076953;27;45613;-54
2022/05/14 07:48:43;;;;;;;;;4.75;2.75;;;;;21.03;35.41;101745.66;5077580;27;46354;-54
2022/05/14 07:51:11;;;;;;;;;2.00;2.00;;;;;21.02;35.44;101738.69;5077569;28;45341;-52
2022/05/14 07:53:36;;;;;;;;;4.50;3.00;;;;;21.03;35.22;101739.53;5077971;27;45412;-54
2022/05/14 07:56:04;;;;;;;;;4.00;3.00;;;;;21.04;35.83;101739.47;5077208;28;45295;-55
2022/05/14 07:58:30;;;;;;;;;4.00;3.00;;;;;21.04;35.91;101747.38;5076804;27;45840;-55
2022/05/14 08:00:56;;;;;;;;;3.50;3.00;;;;;21.08;35.71;101737.56;5077430;28;45173;-52
2022/05/14 08:03:24;;;;;;;;;3.00;3.00;;;;;21.11;35.44;101737.44;5077463;27;45247;-55
2022/05/14 08:05:56;;;;;;;;;4.25;4.25;;;;;21.15;35.87;101736.34;5075956;27;46162;-54
2022/05/14 08:08:23;;;;;;;;;3.00;3.00;;;;;21.18;35.96;101736.22;5077127;27;45976;-55
2022/05/14 08:10:49;;;;;;;;;6.25;3.75;;;;;21.19;35.58;101735.31;5059097;28;45460;-54
2022/05/14 08:13:16;;;;;;;;;4.50;2.75;;;;;21.23;35.61;101733.38;5077119;27;45449;-52
2022/05/14 08:15:43;;;;;;;;;4.00;3.00;;;;;21.25;36.00;101727.13;5076880;27;46444;-53
2022/05/14 08:18:09;;;;;;;;;5.50;4.00;;;;;21.26;35.73;101735.91;5077396;27;45714;-55
2022/05/14 08:20:35;;;;;;;;;6.00;3.50;;;;;21.29;35.69;101731.34;5077451;28;45196;-54
2022/05/14 08:25:44;;;;;;;;;1.00;1.00;;;;;21.35;35.62;101734.59;5076930;28;45810;-53
2022/05/14 08:28:09;;;;;;;;;3.00;3.00;;;;;21.37;36.01;101730.13;5076748;27;45332;-54
2022/05/14 08:30:35;;;;;;;;;5.00;4.00;;;;;21.41;35.90;101737.00;5077310;27;45223;-54
2022/05/14 08:33:02;;;;;;;;;4.00;2.75;;;;;21.42;35.68;101738.69;5077006;27;45614;-54
2022/05/14 08:35:28;;;;;;;;;3.50;3.00;;;;;21.44;35.90;101731.59;5076586;27;46359;-52
2022/05/14 08:37:55;;;;;;;;;4.00;3.00;;;;;21.47;35.70;101734.06;5076601;27;45337;-56
2022/05/14 08:40:26;;;;;;;;;5.25;4.00;;;;;21.49;35.61;101734.84;5076675;27;45472;-52
2022/05/14 08:42:56;;;;;;;;;3.00;2.75;;;;;21.52;35.65;101726.81;5076939;27;45427;-48
2022/05/14 08:45:25;;;;;;;;;5.00;3.00;;;;;21.53;35.69;101731.16;5076567;27;45456;-53
2022/05/14 08:47:56;;;;;;;;;4.00;4.00;;;;;21.57;35.43;101727.44;5075305;28;45267;-48
2022/05/14 08:50:30;;;;;;;;;7.50;3.00;;;;;21.58;35.61;101715.97;5076624;27;45333;-48
2022/05/14 08:53:00;;;;;;;;;3.25;3.00;;;;;21.60;35.55;101719.44;5076701;27;45483;-56
2022/05/14 08:55:33;;;;;;;;;3.75;3.75;;;;;21.62;35.40;101719.34;5075168;28;47347;-54
2022/05/14 08:58:13;;;;;;;;;3.25;3.25;;;;;21.65;35.34;101721.00;5076474;27;45772;-52
2022/05/14 09:00:39;;;;;;;;;4.00;3.00;;;;;21.64;35.21;101717.50;5076764;27;45511;-54
2022/05/14 09:03:04;;;;;;;;;4.75;4.75;;;;;21.66;35.25;101723.56;5076625;28;45589;-55
2022/05/14 09:05:34;;;;;;;;;3.00;3.00;;;;;21.64;35.15;101720.13;5076249;27;46089;-54
2022/05/14 09:08:01;;;;;;;;;3.25;2.00;;;;;21.66;35.20;101722.72;5076195;27;45323;-51
2022/05/14 09:10:33;;;;;;;;;4.00;2.75;;;;;21.71;35.00;101724.22;5076547;27;45409;-54
2022/05/14 09:12:58;;;;;;;;;3.00;3.00;;;;;21.72;35.25;101727.72;5076527;27;45397;-53
2022/05/14 09:15:26;;;;;;;;;6.00;3.00;;;;;21.75;34.99;101724.94;5076114;28;46397;-50
2022/05/14 09:18:08;;;;;;;;;2.50;2.50;;;;;21.78;34.89;101728.28;5078257;27;45793;-53
2022/05/14 09:20:43;;;;;;;;;2.00;2.00;;;;;21.82;35.02;101723.72;5080094;27;45395;-54
2022/05/14 09:23:08;;;;;;;;;3.50;3.00;;;;;21.85;34.93;101717.41;5079225;28;45263;-55
2022/05/14 09:25:41;;;;;;;;;3.00;3.00;;;;;21.89;35.14;101719.84;5079663;27;45280;-55
2022/05/14 09:28:23;;;;;;;;;3.50;3.25;;;;;21.93;34.49;101710.03;5079744;27;45515;-56
2022/05/14 09:30:58;;;;;;;;;3.75;3.50;;;;;21.95;34.44;101709.94;5078573;28;45494;-55
2022/05/14 09:33:34;;;;;;;;;3.00;3.00;;;;;21.98;34.52;101717.72;5079969;27;45457;-53
2022/05/14 09:36:00;;;;;;;;;2.25;2.25;;;;;22.00;34.41;101713.19;5079501;27;45400;-53
2022/05/14 09:38:27;;;;;;;;;4.00;3.00;;;;;22.00;34.42;101711.44;5079467;28;45814;-54
2022/05/14 09:40:55;;;;;;;;;3.00;3.00;;;;;22.01;34.45;101707.00;5079791;27;45342;-53
2022/05/14 09:43:20;;;;;;;;;4.50;3.00;;;;;22.01;34.66;101702.59;5079648;27;45283;-54
2022/05/14 09:46:00;;;;;;;;;1.67;1.67;;;;;22.04;34.71;101698.94;5079382;28;46158;-53
2022/05/14 09:48:37;;;;;;;;;6.00;2.25;;;;;22.03;34.63;101700.72;5077958;28;45654;-53
2022/05/14 09:51:08;;;;;;;;;4.50;4.00;;;;;22.09;34.31;101699.59;5079544;27;45513;-52
2022/05/14 09:53:37;;;;;;;;;2.25;2.25;;;;;22.10;34.56;101690.72;5079552;28;45287;-47
2022/05/14 09:56:21;;;;;;;;;5.25;4.00;;;;;22.14;34.55;101692.28;5079161;27;45329;-48
2022/05/14 09:59:20;;;;;;;;;2.50;2.50;;;;;22.16;34.50;101685.13;5079483;28;45482;-50
2022/05/14 10:02:11;;;;;;;;;5.50;4.00;;;;;22.17;34.48;101681.56;5079383;28;45299;-50
2022/05/14 10:05:09;;;;;;;;;6.00;2.75;;;;;22.19;34.44;101677.06;5079401;27;45482;-49
2022/05/14 10:07:57;;;;;;;;;5.25;4.00;;;;;22.21;34.44;101672.56;5077599;28;47578;-48
2022/05/14 10:10:43;;;;;;;;;4.25;4.25;;;;;22.22;34.58;101671.63;5079138;27;46359;-49
2022/05/14 10:13:34;;;;;;;;;4.50;4.25;;;;;22.25;34.34;101678.56;5079147;28;45362;-50
2022/05/14 10:16:24;;;;;;;;;6.75;4.00;;;;;22.27;34.46;101676.69;5079305;27;45310;-52
2022/05/14 10:19:11;;;;;;;;;6.25;4.75;;;;;22.29;34.75;101671.34;5078839;28;45500;-49
2022/05/14 10:22:16;;;;;;;;;3.00;3.00;;;;;22.29;34.50;101672.19;5078949;28;45303;-49
2022/05/14 10:28:26;;;;;;;;;4.25;4.00;;;;;22.32;34.28;101671.19;5078912;28;45717;-53
2022/05/14 10:31:08;;;;;;;;;4.75;2.00;;;;;22.33;34.28;101670.22;5078692;27;46524;-49
2022/05/14 10:33:34;;;;;;;;;6.00;4.00;;;;;22.32;34.11;101664.13;5078667;27;45745;-49
2022/05/14 10:36:15;;;;;;;;;4.00;4.00;;;;;22.34;34.38;101667.53;5078706;27;45812;-51
2022/05/14 10:38:46;;;;;;;;;4.00;4.00;;;;;22.33;34.19;101659.66;5079188;27;45339;-51
2022/05/14 10:41:23;;;;;;;;;3.00;3.00;;;;;22.35;34.23;101665.75;5078870;27;46175;-49
2022/05/14 10:43:57;;;;;;;;;2.00;2.00;;;;;22.37;34.30;101658.59;5077941;27;45756;-54
2022/05/14 10:46:26;;;;;;;;;7.25;4.00;;;;;22.36;34.14;101648.97;5078738;27;45278;-54
2022/05/14 10:49:01;;;;;;;;;4.00;4.00;;;;;22.39;34.47;101654.94;5078646;27;45315;-54
2022/05/14 10:51:31;;;;;;;;;3.25;3.00;;;;;22.41;34.41;101649.63;5076581;28;45866;-54
2022/05/14 10:54:00;;;;;;;;;5.00;4.00;;;;;22.43;34.31;101650.41;5078525;27;45941;-54
2022/05/14 10:56:36;;;;;;;;;4.00;4.00;;;;;22.43;34.30;101641.63;5078330;27;45378;-55
2022/05/14 10:59:10;;;;;;;;;3.75;3.50;;;;;22.46;34.33;101644.94;5078597;27;45215;-54
2022/05/14 11:01:42;;;;;;;;;2.50;2.50;;;;;22.48;34.19;101643.09;5078150;27;46135;-54
2022/05/14 11:04:25;;;;;;;;;4.25;4.00;;;;;22.48;34.26;101635.16;5078319;28;45829;-53
2022/05/14 11:07:01;;;;;;;;;3.50;3.50;;;;;22.50;34.08;101635.94;5078431;27;45472;-55
2022/05/14 11:09:44;;;;;;;;;4.00;4.00;;;;;22.52;34.26;101639.38;5078630;27;45478;-55
2022/05/14 11:12:32;;;;;;;;;3.25;3.00;;;;;22.53;34.26;101643.72;5077864;27;45459;-54
2022/05/14 11:14:59;;;;;;;;;6.75;5.00;;;;;22.53;34.33;101641.09;5077996;27;45307;-55
2022/05/14 11:17:34;;;;;;;;;3.00;3.00;;;;;22.54;34.33;101637.47;5078180;28;45341;-54
2022/05/14 11:20:05;;;;;;;;;3.25;3.25;;;;;22.54;34.10;101629.56;5078153;27;45402;-54
2022/05/14 11:22:43;;;;;;;;;1.00;1.00;;;;;22.53;34.07;101625.22;5077867;28;46366;-54
2022/05/14 11:25:17;;;;;;;;;5.00;4.00;;;;;22.54;34.07;101621.63;5078031;28;45859;-55
2022/05/14 11:28:18;;;;;;;;;3.00;3.00;;;;;22.57;34.08;101625.94;5078233;27;45917;-53
2022/05/14 11:30:55;;;;;;;;;5.00;3.00;;;;;22.58;34.22;101616.19;5078470;27;45607;-54
2022/05/14 11:33:26;;;;;;;;;3.00;3.00;;;;;22.59;34.02;101617.91;5077822;27;46620;-54
2022/05/14 11:35:57;;;;;;;;;4.00;3.00;;;;;22.59;34.15;101620.56;5077644;28;45857;-53
2022/05/14 11:38:23;;;;;;;;;5.00;5.00;;;;;22.60;34.11;101609.91;5077829;27;45747;-54
2022/05/14 11:41:02;;;;;;;;;2.33;2.33;;;;;22.62;33.99;101601.91;5078020;28;45661;-54
2022/05/14 11:43:37;;;;;;;;;4.50;3.00;;;;;22.63;34.06;101614.19;5077318;27;45433;-55
2022/05/14 11:46:06;;;;;;;;;4.00;3.00;;;;;22.64;33.90;101607.97;5077485;28;45301;-53
2022/05/14 11:48:45;;;;;;;;;3.00;3.00;;;;;22.65;33.79;101609.69;5077649;28;45326;-54
2022/05/14 11:51:39;;;;;;;;;4.50;3.50;;;;;22.66;33.82;101609.59;5077840;27;45366;-53